createdAt,value
2018-01-26T00:01:17.067Z,9.80
2018-01-26T00:03:44.618Z,9.80
2018-01-26T00:06:12.147Z,9.80
2018-01-26T00:08:39.658Z,9.80
2018-01-26T00:11:07.967Z,9.60
2018-01-26T00:13:35.474Z,9.60
2018-01-26T00:16:03.003Z,9.50
2018-01-26T00:18:30.562Z,9.40
2018-01-26T00:20:58.091Z,9.40
2018-01-26T00:23:25.591Z,9.40
2018-01-26T00:25:53.110Z,9.40
2018-01-26T00:28:20.643Z,9.40
2018-01-26T00:30:48.941Z,9.60
2018-01-26T00:33:16.468Z,9.60
2018-01-26T00:35:43.999Z,9.60
2018-01-26T00:38:11.500Z,9.60
2018-01-26T00:40:39.829Z,9.70
2018-01-26T00:43:07.328Z,9.70
2018-01-26T00:45:35.595Z,9.60
2018-01-26T00:48:03.152Z,9.60
2018-01-26T00:50:30.674Z,9.60
2018-01-26T00:52:58.217Z,9.60
2018-01-26T00:55:25.733Z,9.50
2018-01-26T00:57:53.272Z,9.40
2018-01-26T01:00:20.795Z,9.40
2018-01-26T01:02:48.307Z,9.40
2018-01-26T01:05:15.838Z,9.30
2018-01-26T01:07:43.343Z,9.30
2018-01-26T01:10:11.640Z,9.40
2018-01-26T01:12:39.131Z,9.40
2018-01-26T01:15:06.627Z,9.40
2018-01-26T01:17:34.903Z,9.50
2018-01-26T01:20:03.188Z,9.50
2018-01-26T01:22:31.481Z,9.50
2018-01-26T01:24:58.990Z,9.40
2018-01-26T01:27:26.546Z,9.40
2018-01-26T01:29:54.074Z,9.50
2018-01-26T01:32:21.593Z,9.50
2018-01-26T01:34:49.897Z,9.50
2018-01-26T01:37:17.416Z,9.50
2018-01-26T01:39:44.944Z,9.60
2018-01-26T01:42:12.479Z,9.50
2018-01-26T01:44:40.007Z,9.50
2018-01-26T01:47:08.296Z,9.50
2018-01-26T01:49:35.814Z,9.50
2018-01-26T01:52:03.345Z,9.40
2018-01-26T01:54:30.854Z,9.40
2018-01-26T01:56:59.118Z,9.40
2018-01-26T01:59:26.659Z,9.40
2018-01-26T02:01:54.159Z,9.40
2018-01-26T02:04:22.451Z,9.30
2018-01-26T02:06:49.959Z,9.30
2018-01-26T02:09:17.507Z,9.40
2018-01-26T02:11:45.028Z,9.30
2018-01-26T02:14:12.532Z,9.30
2018-01-26T02:16:40.092Z,9.30
2018-01-26T02:19:07.628Z,9.20
2018-01-26T02:21:35.130Z,9.20
2018-01-26T02:24:03.379Z,9.30
2018-01-26T02:26:30.900Z,9.30
2018-01-26T02:28:58.430Z,9.30
2018-01-26T02:31:26.756Z,9.30
2018-01-26T02:33:54.262Z,9.30
2018-01-26T02:36:22.530Z,9.30
2018-01-26T02:38:50.059Z,9.30
2018-01-26T02:41:17.602Z,9.30
2018-01-26T02:43:45.134Z,9.30
2018-01-26T02:46:12.634Z,9.20
2018-01-26T02:48:40.172Z,9.20
2018-01-26T02:51:07.681Z,9.20
2018-01-26T02:53:35.183Z,9.10
2018-01-26T02:56:02.717Z,9.10
2018-01-26T02:58:31.024Z,9.10
2018-01-26T03:00:58.553Z,9.10
2018-01-26T03:03:26.090Z,9.10
2018-01-26T03:05:53.674Z,9.10
2018-01-26T03:08:21.183Z,9.20
2018-01-26T03:10:48.709Z,9.10
2018-01-26T03:13:17.025Z,9.00
2018-01-26T03:15:44.537Z,8.90
2018-01-26T03:18:12.066Z,9.00
2018-01-26T03:20:40.350Z,9.00
2018-01-26T03:23:08.612Z,8.90
2018-01-26T03:25:36.130Z,8.90
2018-01-26T03:28:03.614Z,8.90
2018-01-26T03:30:31.168Z,8.90
2018-01-26T03:32:58.655Z,8.90
2018-01-26T03:35:26.914Z,8.80
2018-01-26T03:37:54.445Z,8.90
2018-01-26T03:40:21.951Z,8.90
2018-01-26T03:42:50.254Z,8.80
2018-01-26T03:45:17.747Z,8.80
2018-01-26T03:47:45.242Z,8.80
2018-01-26T03:50:13.528Z,8.70
2018-01-26T03:52:41.843Z,8.70
2018-01-26T03:55:09.346Z,8.60
2018-01-26T03:57:36.870Z,8.70
2018-01-26T04:00:04.380Z,8.70
2018-01-26T04:02:32.653Z,8.70
2018-01-26T04:05:00.916Z,8.80
2018-01-26T04:07:29.231Z,8.70
2018-01-26T04:09:56.732Z,8.70
2018-01-26T04:12:24.237Z,8.80
2018-01-26T04:14:51.770Z,8.80
2018-01-26T04:17:20.038Z,8.70
2018-01-26T04:19:47.536Z,8.60
2018-01-26T04:22:15.049Z,8.70
2018-01-26T04:24:42.568Z,8.60
2018-01-26T04:27:10.086Z,8.70
2018-01-26T04:29:38.382Z,8.70
2018-01-26T04:32:05.904Z,8.70
2018-01-26T04:34:33.435Z,8.70
2018-01-26T04:37:00.944Z,8.60
2018-01-26T04:39:29.248Z,8.70
2018-01-26T04:41:56.768Z,8.70
2018-01-26T04:44:25.040Z,8.80
2018-01-26T04:46:53.340Z,8.80
2018-01-26T04:49:20.847Z,8.80
2018-01-26T04:51:48.401Z,8.70
2018-01-26T04:54:15.904Z,8.70
2018-01-26T04:56:44.166Z,8.80
2018-01-26T04:59:12.450Z,8.80
2018-01-26T05:01:40.726Z,8.70
2018-01-26T05:04:09.036Z,8.70
2018-01-26T05:06:36.559Z,8.70
2018-01-26T05:09:04.826Z,8.80
2018-01-26T05:11:32.344Z,8.70
2018-01-26T05:13:59.861Z,8.70
2018-01-26T05:16:28.146Z,8.80
2018-01-26T05:18:55.661Z,8.70
2018-01-26T05:21:23.200Z,8.70
2018-01-26T05:23:50.721Z,8.80
2018-01-26T05:26:18.238Z,8.80
2018-01-26T05:28:45.741Z,8.80
2018-01-26T05:31:13.260Z,8.80
2018-01-26T05:33:41.557Z,8.60
2018-01-26T05:36:09.817Z,8.60
2018-01-26T05:38:37.364Z,8.50
2018-01-26T05:41:04.852Z,8.50
2018-01-26T05:43:33.127Z,8.40
2018-01-26T05:46:01.426Z,8.40
2018-01-26T05:48:28.924Z,8.40
2018-01-26T05:50:56.447Z,8.30
2018-01-26T05:53:23.947Z,8.30
2018-01-26T05:55:51.498Z,8.40
2018-01-26T05:58:18.997Z,8.40
2018-01-26T06:00:47.278Z,8.40
2018-01-26T06:03:15.560Z,8.20
2018-01-26T06:05:43.060Z,8.30
2018-01-26T06:08:10.608Z,8.20
2018-01-26T06:10:38.136Z,8.30
2018-01-26T06:13:05.705Z,8.20
2018-01-26T06:15:33.213Z,8.20
2018-01-26T06:18:00.794Z,8.20
2018-01-26T06:20:29.110Z,8.20
2018-01-26T06:22:56.603Z,8.10
2018-01-26T06:25:24.148Z,8.20
2018-01-26T06:27:51.714Z,8.30
2018-01-26T06:30:19.236Z,8.30
2018-01-26T06:32:46.747Z,8.30
2018-01-26T06:35:14.965Z,8.30
2018-01-26T06:37:42.504Z,8.30
2018-01-26T06:40:10.786Z,8.20
2018-01-26T06:42:38.324Z,8.10
2018-01-26T06:45:05.838Z,8.10
2018-01-26T06:47:33.372Z,8.00
2018-01-26T06:50:00.885Z,8.00
2018-01-26T06:52:28.395Z,8.00
2018-01-26T06:54:55.927Z,8.00
2018-01-26T06:57:24.201Z,8.10
2018-01-26T06:59:51.719Z,8.00
2018-01-26T07:02:19.266Z,8.00
2018-01-26T07:04:47.538Z,8.10
2018-01-26T07:07:15.066Z,8.00
2018-01-26T07:09:43.338Z,8.10
2018-01-26T07:12:11.618Z,8.00
2018-01-26T07:14:39.917Z,8.10
2018-01-26T07:17:07.451Z,8.00
2018-01-26T07:19:35.735Z,8.00
2018-01-26T07:22:03.992Z,8.00
2018-01-26T07:24:31.528Z,8.00
2018-01-26T07:26:59.031Z,8.00
2018-01-26T07:29:26.565Z,8.00
2018-01-26T07:31:54.827Z,8.10
2018-01-26T07:34:22.350Z,8.10
2018-01-26T07:36:49.859Z,8.10
2018-01-26T07:39:18.157Z,8.10
2018-01-26T07:41:46.431Z,8.00
2018-01-26T07:44:14.714Z,8.00
2018-01-26T07:46:42.243Z,8.00
2018-01-26T07:49:09.791Z,8.00
2018-01-26T07:51:37.328Z,8.10
2018-01-26T07:54:04.823Z,8.10
2018-01-26T07:56:32.330Z,8.10
2018-01-26T07:58:59.831Z,8.10
2018-01-26T08:01:27.358Z,8.20
2018-01-26T08:03:54.860Z,8.20
2018-01-26T08:06:23.134Z,8.30
2018-01-26T08:08:51.433Z,8.40
2018-01-26T08:11:19.143Z,8.40
2018-01-26T08:13:46.684Z,8.50
2018-01-26T08:16:14.215Z,8.60
2018-01-26T08:18:41.746Z,8.60
2018-01-26T08:21:09.303Z,8.60
2018-01-26T08:23:37.147Z,8.60
2018-01-26T08:26:05.769Z,8.80
2018-01-26T08:28:33.336Z,8.70
2018-01-26T08:31:01.597Z,8.80
2018-01-26T08:33:29.896Z,8.80
2018-01-26T08:35:57.421Z,8.80
2018-01-26T08:38:25.732Z,8.90
2018-01-26T08:40:53.249Z,8.90
2018-01-26T08:43:20.971Z,8.90
2018-01-26T08:45:48.492Z,8.90
2018-01-26T08:48:16.765Z,9.10
2018-01-26T08:50:45.055Z,9.10
2018-01-26T08:53:13.334Z,9.00
2018-01-26T08:55:40.880Z,9.00
2018-01-26T08:58:09.208Z,9.10
2018-01-26T09:00:36.749Z,9.10
2018-01-26T09:03:05.039Z,9.10
2018-01-26T09:05:32.608Z,9.10
2018-01-26T09:08:00.159Z,9.20
2018-01-26T09:10:27.711Z,9.10
2018-01-26T09:12:55.257Z,9.10
2018-01-26T09:15:22.771Z,9.20
2018-01-26T09:17:51.087Z,9.20
2018-01-26T09:20:18.592Z,9.20
2018-01-26T09:22:46.137Z,9.20
2018-01-26T09:25:13.635Z,9.00
2018-01-26T09:27:41.894Z,8.90
2018-01-26T09:30:09.884Z,8.90
2018-01-26T09:32:38.210Z,8.80
2018-01-26T09:35:05.744Z,8.80
2018-01-26T09:37:33.275Z,8.70
2018-01-26T09:40:01.565Z,8.60
2018-01-26T09:42:29.855Z,8.50
2018-01-26T09:44:57.422Z,8.50
2018-01-26T09:47:24.922Z,8.40
2018-01-26T09:49:52.412Z,8.30
2018-01-26T09:52:20.685Z,8.30
2018-01-26T09:54:48.935Z,8.30
2018-01-26T09:57:16.558Z,8.20
2018-01-26T09:59:44.054Z,8.20
2018-01-26T10:02:11.550Z,8.30
2018-01-26T10:04:39.079Z,8.40
2018-01-26T10:07:06.644Z,8.60
2018-01-26T10:09:34.147Z,8.70
2018-01-26T10:12:01.644Z,8.80
2018-01-26T10:14:29.177Z,8.90
2018-01-26T10:16:56.711Z,9.10
2018-01-26T10:19:24.218Z,9.10
2018-01-26T10:21:51.741Z,9.20
2018-01-26T10:24:19.303Z,9.30
2018-01-26T10:26:46.835Z,9.40
2018-01-26T10:29:14.402Z,9.40
2018-01-26T10:31:41.910Z,9.40
2018-01-26T10:34:09.432Z,9.40
2018-01-26T10:36:36.951Z,9.60
2018-01-26T10:39:04.486Z,9.60
2018-01-26T10:41:32.023Z,9.70
2018-01-26T10:43:59.527Z,9.80
2018-01-26T10:46:27.838Z,10.20
2018-01-26T10:49:04.041Z,10.20
2018-01-26T10:51:31.557Z,10.10
2018-01-26T10:54:02.524Z,10.30
2018-01-26T10:56:30.080Z,10.30
2018-01-26T10:58:57.660Z,10.30
2018-01-26T11:01:25.186Z,10.40
2018-01-26T11:03:53.564Z,10.40
2018-01-26T11:06:21.076Z,10.50
2018-01-26T11:08:49.358Z,10.30
2018-01-26T11:11:17.667Z,10.20
2018-01-26T11:13:45.196Z,10.20
2018-01-26T11:16:13.461Z,10.20
2018-01-26T11:18:41.739Z,10.20
2018-01-26T11:21:10.068Z,10.20
2018-01-26T11:23:37.563Z,10.10
2018-01-26T11:26:05.117Z,10.10
2018-01-26T11:28:32.639Z,10.10
2018-01-26T11:31:00.169Z,9.80
2018-01-26T11:33:27.679Z,9.70
2018-01-26T11:35:55.216Z,9.80
2018-01-26T11:38:22.733Z,9.70
2018-01-26T11:40:51.177Z,9.30
2018-01-26T11:43:18.790Z,9.30
2018-01-26T11:45:46.412Z,9.20
2018-01-26T11:48:15.066Z,9.20
2018-01-26T11:50:42.588Z,9.20
2018-01-26T11:53:10.926Z,9.10
2018-01-26T11:55:38.431Z,9.00
2018-01-26T11:58:05.928Z,9.10
2018-01-26T12:00:33.472Z,9.10
2018-01-26T12:03:00.977Z,9.00
2018-01-26T12:05:28.487Z,8.90
2018-01-26T12:07:56.024Z,8.90
2018-01-26T12:10:23.532Z,9.00
2018-01-26T12:12:51.093Z,8.90
2018-01-26T12:15:18.635Z,8.80
2018-01-26T12:17:46.159Z,8.80
2018-01-26T12:20:13.669Z,8.80
2018-01-26T12:22:41.212Z,8.90
2018-01-26T12:25:08.815Z,8.90
2018-01-26T12:27:37.092Z,8.90
2018-01-26T12:30:05.383Z,8.90
2018-01-26T12:32:33.663Z,8.80
2018-01-26T12:35:01.179Z,8.80
2018-01-26T12:37:28.680Z,8.70
2018-01-26T12:39:56.235Z,8.70
2018-01-26T12:42:24.511Z,8.60
2018-01-26T12:44:52.040Z,8.60
2018-01-26T12:47:19.685Z,8.70
2018-01-26T12:49:47.173Z,8.60
2018-01-26T12:52:15.436Z,8.60
2018-01-26T12:54:42.968Z,8.50
2018-01-26T12:57:10.505Z,8.50
2018-01-26T12:59:38.053Z,8.60
2018-01-26T13:02:05.698Z,8.70
2018-01-26T13:04:33.982Z,8.90
2018-01-26T13:07:01.517Z,8.90
2018-01-26T13:09:29.787Z,8.90
2018-01-26T13:11:57.317Z,8.90
2018-01-26T13:14:24.892Z,8.80
2018-01-26T13:16:52.409Z,8.70
2018-01-26T13:19:19.945Z,8.70
2018-01-26T13:21:48.647Z,8.60
2018-01-26T13:24:17.024Z,8.50
2018-01-26T13:26:44.561Z,8.50
2018-01-26T13:29:12.855Z,8.50
2018-01-26T13:31:40.373Z,8.50
2018-01-26T13:34:07.915Z,8.50
2018-01-26T13:36:35.455Z,8.60
2018-01-26T13:39:03.012Z,8.70
2018-01-26T13:41:30.502Z,8.80
2018-01-26T13:43:58.028Z,8.80
2018-01-26T13:46:25.543Z,8.70
2018-01-26T13:48:53.074Z,8.70
2018-01-26T13:51:20.614Z,8.70
2018-01-26T13:53:48.123Z,8.50
2018-01-26T13:56:16.984Z,8.50
2018-01-26T13:58:44.540Z,8.50
2018-01-26T14:01:12.030Z,8.40
2018-01-26T14:03:40.296Z,8.50
2018-01-26T14:06:07.810Z,8.40
2018-01-26T14:08:35.338Z,8.40
2018-01-26T14:11:02.876Z,8.40
2018-01-26T14:13:31.147Z,8.40
2018-01-26T14:15:59.458Z,8.50
2018-01-26T14:18:27.022Z,8.50
2018-01-26T14:20:54.557Z,8.60
2018-01-26T14:23:22.812Z,8.50
2018-01-26T14:25:50.349Z,8.40
2018-01-26T14:28:17.914Z,8.60
2018-01-26T14:30:45.397Z,8.60
2018-01-26T14:33:13.692Z,8.60
2018-01-26T14:35:41.985Z,8.60
2018-01-26T14:38:09.527Z,8.60
2018-01-26T14:40:37.853Z,8.70
2018-01-26T14:43:05.368Z,8.60
2018-01-26T14:45:33.623Z,8.60
2018-01-26T14:48:01.166Z,8.60
2018-01-26T14:50:28.678Z,8.50
2018-01-26T14:52:56.227Z,8.50
2018-01-26T14:55:23.752Z,8.50
2018-01-26T14:57:52.081Z,8.40
2018-01-26T15:00:19.590Z,8.40
2018-01-26T15:02:47.130Z,8.50
2018-01-26T15:05:14.677Z,8.40
2018-01-26T15:07:42.200Z,8.40
2018-01-26T15:13:13.861Z,8.40
2018-01-26T15:15:42.145Z,8.30
2018-01-26T15:18:09.685Z,8.30
2018-01-26T15:20:37.947Z,8.30
2018-01-26T15:23:05.462Z,8.30
2018-01-26T15:25:32.955Z,8.20
2018-01-26T15:28:00.516Z,8.20
2018-01-26T15:30:28.837Z,8.10
2018-01-26T15:32:56.359Z,8.10
2018-01-26T15:35:24.020Z,8.10
2018-01-26T15:37:52.426Z,8.20
2018-01-26T15:40:19.962Z,8.20
2018-01-26T15:42:48.296Z,8.30
2018-01-26T15:45:16.043Z,8.30
2018-01-26T15:47:44.384Z,8.30
2018-01-26T15:50:12.716Z,8.20
2018-01-26T15:52:40.248Z,8.20
2018-01-26T15:55:07.800Z,8.20
2018-01-26T15:57:36.304Z,8.20
2018-01-26T16:00:03.842Z,8.20
2018-01-26T16:02:31.348Z,8.30
2018-01-26T16:04:58.894Z,8.30
2018-01-26T16:07:26.412Z,8.20
2018-01-26T16:09:54.713Z,8.20
2018-01-26T16:12:22.255Z,8.10
2018-01-26T16:14:49.824Z,8.20
2018-01-26T16:17:17.487Z,8.20
2018-01-26T16:19:45.027Z,8.10
2018-01-26T16:22:12.588Z,8.10
2018-01-26T16:24:40.882Z,8.00
2018-01-26T16:27:08.449Z,8.00
2018-01-26T16:29:36.127Z,8.10
2018-01-26T16:32:03.628Z,8.10
2018-01-26T16:34:31.911Z,8.20
2018-01-26T16:37:00.231Z,8.20
2018-01-26T16:39:28.208Z,8.20
2018-01-26T16:41:55.800Z,8.20
2018-01-26T16:44:24.127Z,8.20
2018-01-26T16:46:51.636Z,8.20
2018-01-26T16:49:19.257Z,8.10
2018-01-26T16:51:47.268Z,8.10
2018-01-26T16:54:14.877Z,8.00
2018-01-26T16:56:43.788Z,8.00
2018-01-26T16:59:12.240Z,7.90
2018-01-26T17:01:39.775Z,8.00
2018-01-26T17:04:08.089Z,8.00
2018-01-26T17:06:35.911Z,8.00
2018-01-26T17:09:04.431Z,8.10
2018-01-26T17:11:31.956Z,8.10
2018-01-26T17:14:00.238Z,8.10
2018-01-26T17:16:28.536Z,8.20
2018-01-26T17:18:56.064Z,8.10
2018-01-26T17:21:24.352Z,8.10
2018-01-26T17:23:52.649Z,8.10
2018-01-26T17:26:20.196Z,8.10
2018-01-26T17:28:47.778Z,8.20
2018-01-26T17:31:15.311Z,8.20
2018-01-26T17:33:42.844Z,8.20
2018-01-26T17:36:10.365Z,8.20
2018-01-26T17:38:37.923Z,8.20
2018-01-26T17:41:05.433Z,8.20
2018-01-26T17:43:33.731Z,8.10
2018-01-26T17:46:01.253Z,8.10
2018-01-26T17:48:28.801Z,8.00
2018-01-26T17:50:56.461Z,7.90
2018-01-26T17:53:23.983Z,7.90
2018-01-26T17:55:51.528Z,7.90
2018-01-26T17:58:19.048Z,7.90
2018-01-26T18:00:46.629Z,7.90
2018-01-26T18:03:14.927Z,8.00
2018-01-26T18:05:42.454Z,8.00
2018-01-26T18:08:10.752Z,8.00
2018-01-26T18:10:38.266Z,8.00
2018-01-26T18:13:05.804Z,8.00
2018-01-26T18:15:33.311Z,8.00
2018-01-26T18:18:01.705Z,8.10
2018-01-26T18:20:29.225Z,8.10
2018-01-26T18:22:56.742Z,8.10
2018-01-26T18:25:24.271Z,8.00
2018-01-26T18:27:52.574Z,8.00
2018-01-26T18:30:20.172Z,8.00
2018-01-26T18:32:47.678Z,8.00
2018-01-26T18:35:15.189Z,8.00
2018-01-26T18:37:42.712Z,8.00
2018-01-26T18:40:10.557Z,8.10
2018-01-26T18:42:39.030Z,8.10
2018-01-26T18:45:06.571Z,8.10
2018-01-26T18:47:34.114Z,8.10
2018-01-26T18:50:01.651Z,8.10
2018-01-26T18:52:29.408Z,8.10
2018-01-26T18:54:58.128Z,8.10
2018-01-26T18:57:25.637Z,8.10
2018-01-26T18:59:53.196Z,8.10
2018-01-26T19:02:21.124Z,8.10
2018-01-26T19:04:49.270Z,8.10
2018-01-26T19:07:16.911Z,8.10
2018-01-26T19:09:45.229Z,8.10
2018-01-26T19:12:12.755Z,8.10
2018-01-26T19:14:40.890Z,8.00
2018-01-26T19:17:09.171Z,7.90
2018-01-26T19:19:36.722Z,7.90
2018-01-26T19:22:05.033Z,7.90
2018-01-26T19:24:32.625Z,8.00
2018-01-26T19:27:00.193Z,8.00
2018-01-26T19:29:27.727Z,8.00
2018-01-26T19:31:55.303Z,7.90
2018-01-26T19:34:22.820Z,7.90
2018-01-26T19:36:50.371Z,7.80
2018-01-26T19:39:17.950Z,7.70
2018-01-26T19:41:45.465Z,7.70
2018-01-26T19:44:13.749Z,7.70
2018-01-26T19:46:42.068Z,7.60
2018-01-26T19:49:09.579Z,7.60
2018-01-26T19:51:37.910Z,7.60
2018-01-26T19:54:05.435Z,7.60
2018-01-26T19:56:33.103Z,7.60
2018-01-26T19:59:00.799Z,7.60
2018-01-26T20:01:28.337Z,7.50
2018-01-26T20:04:03.841Z,7.50
2018-01-26T20:06:49.826Z,7.60
2018-01-26T20:09:33.039Z,7.60
2018-01-26T20:12:06.423Z,7.60
2018-01-26T20:14:34.122Z,7.60
2018-01-26T20:17:02.542Z,7.70
2018-01-26T20:19:30.120Z,7.60
2018-01-26T20:21:58.492Z,7.70
2018-01-26T20:24:26.010Z,7.70
2018-01-26T20:26:53.889Z,7.70
2018-01-26T20:29:23.081Z,7.80
2018-01-26T20:31:50.807Z,7.80
2018-01-26T20:34:19.618Z,7.80
2018-01-26T20:36:47.186Z,7.80
2018-01-26T20:39:15.486Z,7.80
2018-01-26T20:41:43.031Z,7.80
2018-01-26T20:44:10.627Z,7.90
2018-01-26T20:46:43.182Z,7.80
2018-01-26T20:49:10.753Z,7.80
2018-01-26T20:51:38.506Z,7.80
2018-01-26T20:54:06.337Z,7.80
2018-01-26T20:56:33.929Z,7.80
2018-01-26T20:59:01.492Z,7.90
2018-01-26T21:01:29.815Z,7.80
2018-01-26T21:03:57.413Z,7.80
2018-01-26T21:06:24.980Z,7.90
2018-01-26T21:08:52.535Z,7.80
2018-01-26T21:11:20.694Z,7.80
2018-01-26T21:13:48.284Z,7.80
2018-01-26T21:16:15.816Z,7.80
2018-01-26T21:18:44.115Z,7.80
2018-01-26T21:21:11.851Z,7.80
2018-01-26T21:23:40.677Z,7.80
2018-01-26T21:26:08.260Z,7.80
2018-01-26T21:28:35.768Z,7.90
2018-01-26T21:31:03.324Z,7.80
2018-01-26T21:33:32.031Z,7.80
2018-01-26T21:35:59.659Z,7.80
2018-01-26T21:38:27.234Z,7.80
2018-01-26T21:40:54.739Z,7.80
2018-01-26T21:43:22.437Z,7.80
2018-01-26T21:45:51.184Z,7.80
2018-01-26T21:48:18.744Z,7.80
2018-01-26T21:50:46.256Z,7.80
2018-01-26T21:53:13.798Z,7.80
2018-01-26T21:55:41.816Z,7.80
2018-01-26T21:58:09.344Z,7.80
2018-01-26T22:00:37.669Z,7.70
2018-01-26T22:03:05.216Z,7.70
2018-01-26T22:05:32.889Z,7.70
2018-01-26T22:08:00.770Z,7.70
2018-01-26T22:10:28.400Z,7.60
2018-01-26T22:12:55.940Z,7.70
2018-01-26T22:15:23.594Z,7.70
2018-01-26T22:17:51.740Z,7.70
2018-01-26T22:20:20.269Z,7.60
2018-01-26T22:22:48.635Z,7.60
2018-01-26T22:25:16.153Z,7.60
2018-01-26T22:27:43.736Z,7.70
2018-01-26T22:30:12.453Z,7.60
2018-01-26T22:32:39.992Z,7.60
2018-01-26T22:35:07.613Z,7.60
2018-01-26T22:37:36.121Z,7.60
2018-01-26T22:40:04.412Z,7.60
2018-01-26T22:42:32.008Z,7.60
2018-01-26T22:44:59.600Z,7.60
2018-01-26T22:47:27.163Z,7.60
2018-01-26T22:49:54.689Z,7.60
2018-01-26T22:52:22.690Z,7.60
2018-01-26T22:54:50.498Z,7.60
2018-01-26T22:57:18.062Z,7.60
2018-01-26T22:59:45.595Z,7.60
2018-01-26T23:02:13.350Z,7.60
2018-01-26T23:04:41.630Z,7.60
2018-01-26T23:07:09.930Z,7.60
2018-01-26T23:09:37.551Z,7.60
2018-01-26T23:12:05.199Z,7.60
2018-01-26T23:14:32.779Z,7.50
2018-01-26T23:17:00.299Z,7.50
2018-01-26T23:19:27.876Z,7.40
2018-01-26T23:21:55.564Z,7.40
2018-01-26T23:24:23.188Z,7.40
2018-01-26T23:26:50.730Z,7.40
2018-01-26T23:29:18.259Z,7.40
2018-01-26T23:31:45.931Z,7.40
2018-01-26T23:34:13.456Z,7.40
2018-01-26T23:36:40.968Z,7.40
2018-01-26T23:39:08.589Z,7.30
2018-01-26T23:41:36.159Z,7.30
2018-01-26T23:44:03.675Z,7.30
2018-01-26T23:46:31.200Z,7.20
2018-01-26T23:48:58.758Z,7.20
2018-01-26T23:51:26.299Z,7.20
2018-01-26T23:53:53.848Z,7.20
2018-01-26T23:56:22.115Z,7.10
2018-01-26T23:58:50.387Z,7.00
